Terminal Aerodrome Forecast
Issued by NWS

Home | Current Version | Previous Version | Text Only | Print | Product List | Glossary On
Versions: 1 2 3 4 5 6 7 8 9 10 11 12 13
000
FTUS44 KSJT 310500
TAFSOA
TAF
KSOA 310520Z 3106/0106 VRB05KT P6SM VCSH BKN090
     FM311200 01008KT P6SM VCSH SCT020 BKN100
     FM311800 02008KT P6SM VCSH BKN050
     FM010200 03006KT P6SM BKN100=

USA.gov is the U.S. government's official web portal to all federal, state and local government web resources and services.